createdAt,value
2022-12-13T00:01:27.430Z,97819.03
2022-12-13T00:03:55.378Z,97818.38
2022-12-13T00:06:22.269Z,97812.41
2022-12-13T00:08:48.805Z,97796.66
2022-12-13T00:11:16.784Z,97799.75
2022-12-13T00:13:43.701Z,97816.78
2022-12-13T00:16:13.595Z,97795.91
2022-12-13T00:18:40.441Z,97792.72
2022-12-13T00:21:13.138Z,97790.78
2022-12-13T00:23:39.594Z,97783.69
2022-12-13T00:26:06.931Z,97783.06
2022-12-13T00:28:33.454Z,97783.13
2022-12-13T00:31:27.038Z,97784.41
2022-12-13T00:33:49.895Z,97784.19
2022-12-13T00:36:16.476Z,97786.41
2022-12-13T00:38:43.012Z,97785.78
2022-12-13T00:41:18.362Z,97777.75
2022-12-13T00:43:45.180Z,97782.00
2022-12-13T00:46:19.731Z,97775.88
2022-12-13T00:48:50.843Z,97781.25
2022-12-13T00:51:17.818Z,97777.47
2022-12-13T00:53:44.496Z,97779.91
2022-12-13T00:56:14.032Z,97782.34
2022-12-13T00:58:41.619Z,97770.84
2022-12-13T01:01:11.049Z,97774.91
2022-12-13T01:03:38.782Z,97769.06
2022-12-13T01:06:29.564Z,97771.59
2022-12-13T01:08:55.986Z,97763.63
2022-12-13T01:11:22.867Z,97769.91
2022-12-13T01:13:49.646Z,97759.03
2022-12-13T01:16:16.295Z,97772.28
2022-12-13T01:18:42.800Z,97759.34
2022-12-13T01:21:13.404Z,97759.72
2022-12-13T01:23:40.659Z,97750.50
2022-12-13T01:26:09.845Z,97748.56
2022-12-13T01:28:36.344Z,97738.41
2022-12-13T01:31:10.043Z,97752.56
2022-12-13T01:33:38.034Z,97742.69
2022-12-13T01:36:07.075Z,97740.63
2022-12-13T01:38:38.012Z,97743.59
2022-12-13T01:41:17.073Z,97749.13
2022-12-13T01:43:44.683Z,97749.22
2022-12-13T01:46:12.008Z,97741.19
2022-12-13T01:48:44.295Z,97743.78
2022-12-13T01:51:14.880Z,97749.38
2022-12-13T01:53:43.266Z,97742.03
2022-12-13T01:56:18.820Z,97745.81
2022-12-13T01:58:48.536Z,97743.94
2022-12-13T02:01:16.151Z,97742.41
2022-12-13T02:03:42.889Z,97746.69
2022-12-13T02:06:36.435Z,97759.72
2022-12-13T02:09:05.604Z,97757.88
2022-12-13T02:11:35.228Z,97761.59
2022-12-13T02:14:01.675Z,97761.63
2022-12-13T02:16:28.042Z,97762.28
2022-12-13T02:19:03.697Z,97757.19
2022-12-13T02:21:58.047Z,97749.19
2022-12-13T02:24:55.035Z,97744.25
2022-12-13T02:27:33.682Z,97751.69
2022-12-13T02:30:19.541Z,97743.88
2022-12-13T02:33:11.439Z,97747.38
2022-12-13T02:35:59.903Z,97737.88
2022-12-13T02:38:52.272Z,97738.88
2022-12-13T02:41:36.880Z,97727.50
2022-12-13T02:44:22.239Z,97720.56
2022-12-13T02:46:55.656Z,97716.19
2022-12-13T02:49:25.433Z,97710.22
2022-12-13T02:51:52.654Z,97715.81
2022-12-13T02:54:19.258Z,97715.25
2022-12-13T02:56:56.510Z,97714.47
2022-12-13T02:59:28.268Z,97711.13
2022-12-13T03:02:21.536Z,97706.34
2022-12-13T03:05:25.203Z,97699.03
2022-12-13T03:08:17.462Z,97693.84
2022-12-13T03:11:04.618Z,97693.50
2022-12-13T03:13:44.499Z,97696.28
2022-12-13T03:16:22.513Z,97687.38
2022-12-13T03:18:51.807Z,97693.47
2022-12-13T03:21:18.346Z,97691.59
2022-12-13T03:23:46.520Z,97688.75
2022-12-13T03:26:18.356Z,97689.41
2022-12-13T03:28:44.812Z,97683.84
2022-12-13T03:31:11.304Z,97685.63
2022-12-13T03:33:38.825Z,97674.13
2022-12-13T03:36:06.363Z,97674.13
2022-12-13T03:38:32.911Z,97679.84
2022-12-13T03:41:03.307Z,97674.69
2022-12-13T03:43:30.125Z,97682.34
2022-12-13T03:45:56.808Z,97678.00
2022-12-13T03:48:24.160Z,97677.78
2022-12-13T03:50:53.311Z,97676.03
2022-12-13T03:53:22.313Z,97676.38
2022-12-13T03:55:58.521Z,97686.22
2022-12-13T03:58:27.584Z,97691.72
2022-12-13T04:01:05.042Z,97680.91
2022-12-13T04:03:31.438Z,97685.34
2022-12-13T04:05:57.744Z,97684.44
2022-12-13T04:08:24.242Z,97684.94
2022-12-13T04:10:50.738Z,97685.59
2022-12-13T04:13:32.390Z,97680.31
2022-12-13T04:15:58.929Z,97678.47
2022-12-13T04:18:25.477Z,97682.59
2022-12-13T04:20:51.917Z,97681.50
2022-12-13T04:23:19.261Z,97683.66
2022-12-13T04:25:45.909Z,97685.66
2022-12-13T04:28:12.379Z,97682.38
2022-12-13T04:30:48.486Z,97690.88
2022-12-13T04:33:21.121Z,97682.47
2022-12-13T04:35:48.051Z,97689.03
2022-12-13T04:38:15.765Z,97691.13
2022-12-13T04:40:42.217Z,97684.53
2022-12-13T04:43:08.741Z,97682.00
2022-12-13T04:45:35.228Z,97682.16
2022-12-13T04:48:03.429Z,97680.56
2022-12-13T04:50:32.412Z,97670.66
2022-12-13T04:52:58.911Z,97676.72
2022-12-13T04:55:25.480Z,97686.19
2022-12-13T04:57:52.080Z,97675.19
2022-12-13T05:00:18.683Z,97671.06
2022-12-13T05:02:45.157Z,97677.09
2022-12-13T05:05:13.589Z,97666.88
2022-12-13T05:07:42.132Z,97667.69
2022-12-13T05:10:10.278Z,97665.88
2022-12-13T05:12:36.790Z,97673.25
2022-12-13T05:15:03.773Z,97666.47
2022-12-13T05:17:30.383Z,97666.63
2022-12-13T05:19:57.068Z,97656.97
2022-12-13T05:22:23.554Z,97650.22
2022-12-13T05:24:50.340Z,97648.50
2022-12-13T05:27:24.399Z,97653.19
2022-12-13T05:30:05.501Z,97652.25
2022-12-13T05:32:43.370Z,97656.56
2022-12-13T05:35:22.034Z,97636.81
2022-12-13T05:37:53.753Z,97640.94
2022-12-13T05:40:25.717Z,97635.63
2022-12-13T05:42:52.653Z,97646.97
2022-12-13T05:45:28.861Z,97653.50
2022-12-13T05:47:55.259Z,97643.00
2022-12-13T05:50:21.616Z,97643.81
2022-12-13T05:52:49.543Z,97646.41
2022-12-13T05:55:25.326Z,97646.66
2022-12-13T05:57:51.963Z,97648.69
2022-12-13T06:00:29.003Z,97645.78
2022-12-13T06:03:00.457Z,97646.81
2022-12-13T06:05:28.540Z,97652.59
2022-12-13T06:07:57.479Z,97645.63
2022-12-13T06:10:24.674Z,97645.78
2022-12-13T06:12:51.065Z,97641.16
2022-12-13T06:15:22.554Z,97640.06
2022-12-13T06:17:49.752Z,97646.47
2022-12-13T06:20:23.444Z,97642.84
2022-12-13T06:22:52.452Z,97654.50
2022-12-13T06:25:30.694Z,97642.75
2022-12-13T06:28:00.897Z,97652.25
2022-12-13T06:30:29.576Z,97647.03
2022-12-13T06:32:56.333Z,97650.81
2022-12-13T06:35:28.008Z,97655.78
2022-12-13T06:37:55.611Z,97662.34
2022-12-13T06:40:31.197Z,97666.13
2022-12-13T06:42:57.929Z,97673.50
2022-12-13T06:45:25.284Z,97677.72
2022-12-13T06:47:51.941Z,97669.63
2022-12-13T06:50:18.392Z,97670.41
2022-12-13T06:52:46.113Z,97674.25
2022-12-13T06:55:12.741Z,97659.41
2022-12-13T06:57:40.725Z,97661.59
2022-12-13T07:00:09.484Z,97650.34
2022-12-13T07:02:36.425Z,97663.59
2022-12-13T07:05:03.036Z,97659.22
2022-12-13T07:07:29.817Z,97673.25
2022-12-13T07:09:56.606Z,97672.66
2022-12-13T07:12:23.557Z,97664.53
2022-12-13T07:14:50.054Z,97674.84
2022-12-13T07:17:33.141Z,97672.94
2022-12-13T07:20:08.167Z,97682.91
2022-12-13T07:22:37.831Z,97676.88
2022-12-13T07:25:06.757Z,97679.88
2022-12-13T07:28:01.285Z,97676.22
2022-12-13T07:30:30.064Z,97671.53
2022-12-13T07:32:56.703Z,97684.75
2022-12-13T07:35:23.324Z,97669.81
2022-12-13T07:37:49.808Z,97681.97
2022-12-13T07:40:16.412Z,97683.34
2022-12-13T07:42:49.573Z,97686.53
2022-12-13T07:45:16.343Z,97680.22
2022-12-13T07:47:42.885Z,97686.34
2022-12-13T07:50:24.367Z,97688.34
2022-12-13T07:52:52.520Z,97693.72
2022-12-13T07:55:18.991Z,97693.25
2022-12-13T07:57:53.581Z,97691.03
2022-12-13T08:00:22.596Z,97685.84
2022-12-13T08:02:49.078Z,97689.84
2022-12-13T08:05:26.895Z,97699.50
2022-12-13T08:07:54.160Z,97705.06
2022-12-13T08:10:21.131Z,97716.16
2022-12-13T08:12:47.993Z,97718.22
2022-12-13T08:15:14.586Z,97713.66
2022-12-13T08:17:41.201Z,97720.53
2022-12-13T08:20:08.415Z,97715.41
2022-12-13T08:22:35.801Z,97716.41
2022-12-13T08:25:03.389Z,97710.63
2022-12-13T08:27:29.855Z,97714.00
2022-12-13T08:29:56.590Z,97710.97
2022-12-13T08:32:23.675Z,97711.16
2022-12-13T08:34:50.384Z,97720.53
2022-12-13T08:37:17.540Z,97714.34
2022-12-13T08:39:46.995Z,97709.13
2022-12-13T08:42:19.240Z,97696.81
2022-12-13T08:44:51.434Z,97691.38
2022-12-13T08:47:26.268Z,97686.34
2022-12-13T08:50:04.201Z,97694.63
2022-12-13T08:52:39.785Z,97697.22
2022-12-13T08:55:08.736Z,97694.75
2022-12-13T08:57:39.348Z,97690.72
2022-12-13T09:00:06.757Z,97697.97
2022-12-13T09:02:37.723Z,97697.25
2022-12-13T09:05:05.863Z,97697.72
2022-12-13T09:07:32.305Z,97699.22
2022-12-13T09:09:58.831Z,97707.16
2022-12-13T09:12:33.875Z,97704.81
2022-12-13T09:15:22.593Z,97714.16
2022-12-13T09:17:52.231Z,97712.59
2022-12-13T09:20:29.665Z,97704.66
2022-12-13T09:23:02.157Z,97698.16
2022-12-13T09:25:37.277Z,97698.16
2022-12-13T09:28:08.427Z,97705.59
2022-12-13T09:30:39.013Z,97704.66
2022-12-13T09:33:27.796Z,97706.66
2022-12-13T09:35:52.514Z,97709.06
2022-12-13T09:38:19.582Z,97705.06
2022-12-13T09:40:49.010Z,97712.06
2022-12-13T09:43:32.515Z,97711.03
2022-12-13T09:46:13.030Z,97712.72
2022-12-13T09:48:51.885Z,97704.59
2022-12-13T09:51:28.289Z,97711.41
2022-12-13T09:54:05.271Z,97705.81
2022-12-13T09:56:35.459Z,97700.59
2022-12-13T09:59:03.714Z,97689.97
2022-12-13T10:01:30.285Z,97686.06
2022-12-13T10:04:00.014Z,97689.09
2022-12-13T10:06:31.395Z,97676.41
2022-12-13T10:09:00.355Z,97680.03
2022-12-13T10:11:32.140Z,97672.00
2022-12-13T10:14:09.816Z,97672.38
2022-12-13T10:16:37.191Z,97666.63
2022-12-13T10:19:35.303Z,97666.41
2022-12-13T10:22:04.650Z,97671.94
2022-12-13T10:24:49.546Z,97679.88
2022-12-13T10:27:25.881Z,97676.94
2022-12-13T10:30:15.165Z,97677.50
2022-12-13T10:32:59.644Z,97672.78
2022-12-13T10:35:32.670Z,97671.72
2022-12-13T10:38:20.631Z,97675.78
2022-12-13T10:40:48.857Z,97676.59
2022-12-13T10:43:17.200Z,97680.06
2022-12-13T10:46:02.394Z,97680.06
2022-12-13T10:48:42.610Z,97676.78
2022-12-13T10:51:12.320Z,97674.72
2022-12-13T10:53:47.371Z,97679.47
2022-12-13T10:56:23.034Z,97678.34
2022-12-13T10:59:16.590Z,97684.31
2022-12-13T11:01:44.248Z,97669.19
2022-12-13T11:04:31.499Z,97676.88
2022-12-13T11:07:31.793Z,97665.59
2022-12-13T11:10:18.471Z,97670.75
2022-12-13T11:12:47.526Z,97669.03
2022-12-13T11:15:23.158Z,97669.50
2022-12-13T11:17:53.328Z,97660.72
2022-12-13T11:20:24.584Z,97660.22
2022-12-13T11:23:19.613Z,97664.84
2022-12-13T11:25:46.300Z,97663.66
2022-12-13T11:28:30.714Z,97654.91
2022-12-13T11:31:08.411Z,97656.91
2022-12-13T11:33:47.706Z,97653.34
2022-12-13T11:36:28.180Z,97642.16
2022-12-13T11:39:06.954Z,97641.84
2022-12-13T11:41:42.085Z,97639.00
2022-12-13T11:44:18.087Z,97650.75
2022-12-13T11:46:53.941Z,97652.88
2022-12-13T11:49:42.244Z,97654.69
2022-12-13T11:52:29.191Z,97659.50
2022-12-13T11:55:15.775Z,97654.88
2022-12-13T11:57:52.766Z,97652.38
2022-12-13T12:00:33.671Z,97647.88
2022-12-13T12:03:21.807Z,97645.19
2022-12-13T12:05:59.672Z,97640.78
2022-12-13T12:08:37.649Z,97632.13
2022-12-13T12:11:14.571Z,97628.78
2022-12-13T12:13:52.070Z,97626.97
2022-12-13T12:16:35.677Z,97618.94
2022-12-13T12:19:02.668Z,97622.94
2022-12-13T12:22:15.094Z,97623.53
2022-12-13T12:24:57.248Z,97618.53
2022-12-13T12:27:33.143Z,97619.69
2022-12-13T12:30:08.637Z,97616.03
2022-12-13T12:32:50.987Z,97620.81
2022-12-13T12:35:40.430Z,97611.94
2022-12-13T12:38:37.068Z,97610.16
2022-12-13T12:41:31.456Z,97615.38
2022-12-13T12:44:31.121Z,97619.25
2022-12-13T12:48:07.170Z,97618.53
2022-12-13T12:50:43.855Z,97624.19
2022-12-13T12:53:22.465Z,97625.94
2022-12-13T12:56:19.646Z,97616.25
2022-12-13T12:59:10.227Z,97616.13
2022-12-13T13:01:45.752Z,97601.97
2022-12-13T13:04:22.990Z,97608.28
2022-12-13T13:07:28.717Z,97602.09
2022-12-13T13:09:56.623Z,97595.19
2022-12-13T13:12:28.907Z,97604.75
2022-12-13T13:14:57.941Z,97597.09
2022-12-13T13:17:24.322Z,97597.97
2022-12-13T13:20:17.564Z,97599.31
2022-12-13T13:22:53.846Z,97604.03
2022-12-13T13:25:33.232Z,97603.75
2022-12-13T13:28:15.231Z,97609.94
2022-12-13T13:31:05.530Z,97615.75
2022-12-13T13:33:52.275Z,97608.78
2022-12-13T13:36:44.629Z,97612.25
2022-12-13T13:39:19.206Z,97606.16
2022-12-13T13:42:08.524Z,97596.41
2022-12-13T13:44:50.264Z,97591.09
2022-12-13T13:47:22.650Z,97592.16
2022-12-13T13:50:08.390Z,97599.78
2022-12-13T13:52:45.752Z,97588.38
2022-12-13T13:55:24.350Z,97592.53
2022-12-13T13:58:10.688Z,97591.75
2022-12-13T14:01:16.211Z,97581.78
2022-12-13T14:04:07.887Z,97583.75
2022-12-13T14:07:01.513Z,97576.59
2022-12-13T14:09:40.076Z,97580.28
2022-12-13T14:12:34.795Z,97580.28
2022-12-13T14:15:31.924Z,97589.41
2022-12-13T14:18:32.794Z,97598.28
2022-12-13T14:21:16.932Z,97593.72
2022-12-13T14:23:58.955Z,97586.25
2022-12-13T14:26:36.403Z,97580.13
2022-12-13T14:29:10.517Z,97591.03
2022-12-13T14:31:47.005Z,97594.59
2022-12-13T14:34:44.425Z,97591.03
2022-12-13T14:37:40.309Z,97594.94
2022-12-13T14:40:32.780Z,97587.31
2022-12-13T14:42:59.889Z,97582.50
2022-12-13T14:45:33.103Z,97594.03
2022-12-13T14:48:03.621Z,97590.06
2022-12-13T14:50:34.911Z,97590.06
2022-12-13T14:53:03.302Z,97580.84
2022-12-13T14:55:33.034Z,97586.50
2022-12-13T14:58:01.969Z,97586.50
2022-12-13T15:00:32.814Z,97580.84
2022-12-13T15:03:01.289Z,97576.69
2022-12-13T15:05:48.666Z,97582.59
2022-12-13T15:08:18.910Z,97580.41
2022-12-13T15:10:48.866Z,97578.81
2022-12-13T15:13:30.772Z,60389.78
2022-12-13T15:16:10.595Z,60389.78
2022-12-13T15:18:50.682Z,60389.78
2022-12-13T15:21:24.911Z,60389.78
2022-12-13T15:23:58.619Z,60389.78
2022-12-13T15:26:32.011Z,60389.78
2022-12-13T15:29:09.612Z,60389.78
2022-12-13T15:31:38.182Z,60389.78
2022-12-13T15:34:34.647Z,60389.78
2022-12-13T15:37:05.491Z,60389.78
2022-12-13T15:39:37.925Z,60389.78
2022-12-13T15:42:04.876Z,60389.78
2022-12-13T15:44:37.863Z,60389.78
2022-12-13T15:47:08.570Z,60389.78
2022-12-13T15:49:44.027Z,60389.78
2022-12-13T15:52:16.247Z,60389.78
2022-12-13T15:55:03.291Z,60389.78
2022-12-13T15:57:33.841Z,60389.78
2022-12-13T16:00:16.706Z,60389.78
2022-12-13T16:02:59.916Z,60389.78
2022-12-13T16:05:36.062Z,60389.78
2022-12-13T16:08:21.832Z,60389.78
2022-12-13T16:10:50.400Z,60389.78
2022-12-13T16:13:27.024Z,60389.78
2022-12-13T16:16:09.156Z,60389.78
2022-12-13T16:18:45.331Z,60389.78
2022-12-13T16:21:12.018Z,60389.78
2022-12-13T16:23:38.526Z,60389.78
2022-12-13T16:26:08.924Z,60389.78
2022-12-13T16:28:35.986Z,60389.78
2022-12-13T16:31:21.440Z,60389.78
2022-12-13T16:33:48.589Z,60389.78
2022-12-13T16:36:15.424Z,60389.78
2022-12-13T16:38:42.170Z,60389.78
2022-12-13T16:41:23.484Z,97507.31
2022-12-13T16:43:52.860Z,97501.41
2022-12-13T16:47:15.424Z,97497.34
2022-12-13T16:49:19.478Z,97501.63
2022-12-13T16:51:48.574Z,97500.69
2022-12-13T16:54:16.697Z,97508.53
2022-12-13T16:56:43.534Z,97507.50
2022-12-13T16:59:15.083Z,97504.16
2022-12-13T17:01:43.489Z,97506.28
2022-12-13T17:04:20.607Z,97513.19
2022-12-13T17:06:50.086Z,97510.84
2022-12-13T17:09:17.712Z,97508.44
2022-12-13T17:11:44.706Z,97506.44
2022-12-13T17:14:11.495Z,97503.31
2022-12-13T17:16:37.990Z,97507.50
2022-12-13T17:19:04.665Z,97509.41
2022-12-13T17:21:32.015Z,97498.19
2022-12-13T17:24:01.375Z,97504.44
2022-12-13T17:26:29.151Z,97504.00
2022-12-13T17:28:55.948Z,97498.53
2022-12-13T17:31:22.950Z,97497.81
2022-12-13T17:33:49.662Z,97505.38
2022-12-13T17:36:16.938Z,97499.66
2022-12-13T17:38:47.607Z,97504.31
2022-12-13T17:41:18.148Z,97512.38
2022-12-13T17:43:45.094Z,97506.34
2022-12-13T17:46:17.309Z,97509.03
2022-12-13T17:48:45.455Z,97511.06
2022-12-13T17:51:13.229Z,97507.50
2022-12-13T17:53:42.625Z,97507.72
2022-12-13T17:56:20.624Z,97511.44
2022-12-13T17:58:47.632Z,97514.78
2022-12-13T18:01:20.625Z,97509.66
2022-12-13T18:03:48.743Z,97510.91
2022-12-13T18:06:15.653Z,97514.97
2022-12-13T18:08:44.552Z,97507.09
2022-12-13T18:13:59.464Z,97496.06
2022-12-13T18:16:34.122Z,97492.28
2022-12-13T18:19:07.175Z,97492.72
2022-12-13T18:21:35.278Z,97484.31
2022-12-13T18:24:01.796Z,97480.03
2022-12-13T18:26:28.346Z,97480.75
2022-12-13T18:28:54.960Z,97476.94
2022-12-13T18:31:24.645Z,97469.78
2022-12-13T18:33:54.019Z,97461.47
2022-12-13T18:36:23.251Z,97466.84
2022-12-13T18:38:50.377Z,97469.19
2022-12-13T18:41:23.312Z,97463.97
2022-12-13T18:43:55.747Z,97458.84
2022-12-13T18:46:22.311Z,97461.50
2022-12-13T18:48:48.784Z,97444.13
2022-12-13T18:51:15.262Z,97446.28
2022-12-13T18:53:42.398Z,97438.88
2022-12-13T18:56:18.259Z,97444.59
2022-12-13T18:58:45.985Z,97444.97
2022-12-13T19:01:13.114Z,97435.09
2022-12-13T19:03:39.983Z,97442.13
2022-12-13T19:06:07.530Z,97433.13
2022-12-13T19:08:36.323Z,97428.25
2022-12-13T19:11:03.777Z,97417.34
2022-12-13T19:13:32.262Z,97419.50
2022-12-13T19:16:06.056Z,97404.50
2022-12-13T19:18:33.043Z,97391.78
2022-12-13T19:20:59.611Z,97382.72
2022-12-13T19:23:26.802Z,97388.06
2022-12-13T19:25:53.767Z,97376.41
2022-12-13T19:28:20.589Z,97376.97
2022-12-13T19:30:48.015Z,97373.31
2022-12-13T19:33:15.606Z,97366.72
2022-12-13T19:35:46.758Z,97358.88
2022-12-13T19:38:13.693Z,97357.59
2022-12-13T19:40:42.220Z,97359.09
2022-12-13T19:43:11.139Z,97343.13
2022-12-13T19:45:38.211Z,97339.56
2022-12-13T19:48:06.492Z,97330.03
2022-12-13T19:50:35.012Z,97329.06
2022-12-13T19:53:01.904Z,97327.16
2022-12-13T19:55:28.422Z,97346.22
2022-12-13T19:57:55.202Z,97342.41
2022-12-13T20:00:22.348Z,97345.28
2022-12-13T20:02:50.774Z,97354.34
2022-12-13T20:05:18.449Z,97354.31
2022-12-13T20:07:45.893Z,97365.31
2022-12-13T20:10:15.094Z,97369.00
2022-12-13T20:12:41.432Z,97381.41
2022-12-13T20:15:09.031Z,97383.06
2022-12-13T20:17:36.069Z,97384.50
2022-12-13T20:20:03.938Z,97389.97
2022-12-13T20:22:31.856Z,97394.25
2022-12-13T20:25:00.160Z,97395.09
2022-12-13T20:27:27.435Z,97384.13
2022-12-13T20:29:54.062Z,97382.13
2022-12-13T20:32:21.383Z,97372.22
2022-12-13T20:34:51.700Z,97365.56
2022-12-13T20:37:24.295Z,97372.00
2022-12-13T20:39:50.915Z,97369.25
2022-12-13T20:42:18.382Z,97362.47
2022-12-13T20:44:47.151Z,97361.63
2022-12-13T20:47:14.371Z,97374.50
2022-12-13T20:49:41.456Z,97377.00
2022-12-13T20:52:08.756Z,97378.16
2022-12-13T20:54:36.204Z,97374.16
2022-12-13T20:57:03.635Z,97372.69
2022-12-13T20:59:30.638Z,97357.25
2022-12-13T21:01:57.322Z,97361.63
2022-12-13T21:04:24.187Z,97366.25
2022-12-13T21:06:50.967Z,97360.31
2022-12-13T21:09:20.646Z,97365.44
2022-12-13T21:11:49.761Z,97358.88
2022-12-13T21:14:22.177Z,97368.19
2022-12-13T21:17:00.963Z,97363.78
2022-12-13T21:19:37.437Z,97359.16
2022-12-13T21:22:13.334Z,97352.69
2022-12-13T21:24:46.388Z,97356.03
2022-12-13T21:27:13.470Z,97347.69
2022-12-13T21:29:40.103Z,97353.88
2022-12-13T21:32:08.784Z,97353.41
2022-12-13T21:34:35.325Z,97346.63
2022-12-13T21:37:01.706Z,97345.19
2022-12-13T21:39:28.453Z,97342.91
2022-12-13T21:41:56.640Z,97336.63
2022-12-13T21:44:23.783Z,97324.56
2022-12-13T21:49:37.466Z,97302.88
2022-12-13T21:52:04.516Z,97303.47
2022-12-13T21:54:30.968Z,97298.72
2022-12-13T21:57:16.107Z,97287.16
2022-12-13T21:59:42.693Z,97292.53
2022-12-13T22:02:15.813Z,97289.91
2022-12-13T22:04:57.582Z,97288.47
2022-12-13T22:07:26.864Z,97287.16
2022-12-13T22:09:54.405Z,97290.16
2022-12-13T22:12:22.774Z,97279.41
2022-12-13T22:14:49.924Z,97274.78
2022-12-13T22:17:17.871Z,97285.00
2022-12-13T22:19:48.465Z,97278.69
2022-12-13T22:22:17.383Z,97280.94
2022-12-13T22:24:46.213Z,97284.88
2022-12-13T22:27:18.336Z,97278.69
2022-12-13T22:29:44.766Z,97282.50
2022-12-13T22:32:11.210Z,97282.50
2022-12-13T22:34:37.862Z,97290.13
2022-12-13T22:37:04.376Z,97292.38
2022-12-13T22:39:31.120Z,97282.53
2022-12-13T22:41:58.146Z,97279.28
2022-12-13T22:44:24.635Z,97274.25
2022-12-13T22:46:51.062Z,97276.38
2022-12-13T22:49:17.771Z,97266.53
2022-12-13T22:51:44.336Z,97266.53
2022-12-13T22:54:10.713Z,97283.19
2022-12-13T22:56:37.284Z,97277.56
2022-12-13T22:59:07.810Z,97274.44
2022-12-13T23:01:37.340Z,97269.69
2022-12-13T23:04:05.852Z,97265.97
2022-12-13T23:06:37.626Z,97274.69
2022-12-13T23:09:08.124Z,97266.97
2022-12-13T23:11:53.594Z,97266.50
2022-12-13T23:14:28.914Z,97258.75
2022-12-13T23:16:55.836Z,97244.97
2022-12-13T23:22:09.260Z,97231.66
2022-12-13T23:24:35.827Z,97235.44
2022-12-13T23:27:02.394Z,97235.06
2022-12-13T23:29:28.722Z,97229.34
2022-12-13T23:31:55.173Z,97226.81
2022-12-13T23:34:21.944Z,97228.50
2022-12-13T23:36:48.354Z,97234.81
2022-12-13T23:39:14.742Z,97241.66
2022-12-13T23:41:41.149Z,97223.16
2022-12-13T23:44:07.686Z,97235.56
2022-12-13T23:46:35.556Z,97233.34
2022-12-13T23:49:05.224Z,97208.31
2022-12-13T23:51:32.576Z,97200.09
2022-12-13T23:53:59.146Z,97192.84
2022-12-13T23:56:25.705Z,97180.88
2022-12-13T23:58:52.235Z,97164.75
